Butterfield, MO (65623)

10:11 PM CDT on August 22, 2017 (GMT -0500)
Butterfield | | Change Station

Elev 1526 ft 36.75 °N, 93.91 °W | Updated 16 seconds ago

Overcast
Overcast
73.4 °F
Feels Like 72 °F
N
0.0
Wind Variable Wind from SSW

Today
High -- | Low -- °F
--% Chance of Precip.
Yesterday
High -- | Low -- °F
Precip. -- in
Pressure 30.08 in
Visibility 10.0 miles
Clouds Scattered Clouds 3000 ft
Scattered Clouds 6000 ft
Mostly Cloudy 9500 ft
Heat Index 72 °F
Dew Point 69 °F
Humidity 86%
Rainfall 1.03 in
Snow Depth Not available.
6:38 AM 7:57 PM
New Moon, 2% visible
METAR KHFJ 230250Z AUTO 02004KT 10SM SCT030 SCT060 BKN095 22/21 A3008 RMK AO2
Pressure 30.08 in
Visibility 10.0 miles
Clouds Scattered Clouds 3000 ft
Scattered Clouds 6000 ft
Mostly Cloudy 9500 ft
Heat Index 72 °F
Dew Point 69 °F
Humidity 86%
Rainfall 1.03 in
Snow Depth Not available.
6:38 AM 7:57 PM
New Moon, 2% visible
METAR KHFJ 230250Z AUTO 02004KT 10SM SCT030 SCT060 BKN095 22/21 A3008 RMK AO2

Get Severe Weather Alerts

Thanks for signing up!

Be on the lookout for a verification email in your inbox.

You'll start receiving the daily forecast at 6 AM.

×

10-Day Weather Forecast

Almanac

Astronomy

Aug. 22, 2017 Rise Set
Actual Time
Civil Twilight
Nautical Twilight
Astronomical Twilight
Moon
Length of Visible Light
Length of Day
Tomorrow will be .
, % of the Moon is Illuminated

Today's Extremes

State Highs State Lows

Community

WunderPhotos

Category 6

Welcome to Category 6. This is the collective home for Weather Underground's featured writeups by Dr. Jeff Masters (right), Bob Henson (left), Chris Burt, and other regular contributors.

Nearby

Air Quality

  Air Quality AQ Index Pollutant
Not available.

Snow Depth

Station Depth Elevation

Earthquake Activity

City Distance Mag. Time & Date
Minimum magnitude displayed is 2.5.

Coastal Water Temperatures

Place Temperature

Stations

Nearby Weather Stations

Station Location Temp. Windchill Dew Point Humidity Wind Precip. Elev Updated Type
                   

Watches & Warnings

There are currently no watches in effect.